Time;durP1;ratioP1;P1;durP2;ratioP2;P2;SDS_P1;SDS_P2;PMS_P1;PMS_P2;Temp;Humidity;BMP_temperature;BMP_pressure;BME280_temperature;BME280_humidity;BME280_pressure;Samples;Min_cycle;Max_cycle;Signal;HPM_P1;HPM_P2
2022/05/02 00:00:32;;;;;;;8.40;5.80;;;11.40;99.90;;;;;;4873889;29;20034;-45
2022/05/02 00:02:58;;;;;;;12.25;6.95;;;11.50;99.90;;;;;;4860111;29;20053;-48
2022/05/02 00:05:24;;;;;;;14.10;5.88;;;11.40;99.90;;;;;;4859878;29;20056;-47
2022/05/02 00:07:49;;;;;;;9.07;6.65;;;11.50;99.90;;;;;;4859223;29;20033;-48
2022/05/02 00:10:15;;;;;;;11.18;6.55;;;11.50;99.90;;;;;;4879409;23;20041;-49
2022/05/02 00:12:41;;;;;;;16.15;6.50;;;11.40;99.90;;;;;;4859056;29;20076;-48
2022/05/02 00:15:08;;;;;;;7.05;5.82;;;11.40;99.90;;;;;;4857791;29;20088;-50
2022/05/02 00:20:18;;;;;;;7.88;6.45;;;11.40;99.90;;;;;;4859255;29;20449;-50
2022/05/02 00:22:44;;;;;;;10.48;6.20;;;11.30;99.90;;;;;;4859107;29;20029;-43
2022/05/02 00:25:10;;;;;;;15.57;6.15;;;11.20;99.90;;;;;;4858937;29;20037;-46
2022/05/02 00:27:38;;;;;;;9.38;7.22;;;11.20;99.90;;;;;;4858675;29;20104;-48
2022/05/02 00:30:05;;;;;;;9.90;6.40;;;11.20;99.90;;;;;;4858861;29;20026;-47
2022/05/02 00:32:30;;;;;;;7.30;5.97;;;11.30;99.90;;;;;;4857828;29;20026;-49
2022/05/02 00:34:56;;;;;;;8.43;5.45;;;11.30;99.90;;;;;;4858989;29;20028;-44
2022/05/02 00:37:21;;;;;;;9.60;6.38;;;11.20;99.90;;;;;;4858531;29;20038;-50
2022/05/02 00:39:47;;;;;;;10.65;5.38;;;11.30;99.90;;;;;;4858559;29;20405;-47
2022/05/02 00:42:13;;;;;;;8.77;6.65;;;11.20;99.90;;;;;;4857566;29;20061;-47
2022/05/02 00:44:43;;;;;;;8.38;5.68;;;11.10;99.90;;;;;;4858991;29;20070;-52
2022/05/02 00:47:09;;;;;;;8.93;5.90;;;11.10;99.90;;;;;;4858292;29;20370;-51
2022/05/02 00:49:37;;;;;;;9.90;6.25;;;11.10;99.90;;;;;;4858514;29;20025;-50
2022/05/02 00:52:04;;;;;;;10.77;6.60;;;11.00;99.90;;;;;;4859148;29;20033;-49
2022/05/02 00:54:30;;;;;;;7.65;5.95;;;11.00;99.90;;;;;;4858569;29;20018;-47
2022/05/02 00:56:55;;;;;;;8.93;6.47;;;10.90;99.90;;;;;;4858270;29;20551;-43
2022/05/02 00:59:23;;;;;;;12.55;6.60;;;10.90;99.90;;;;;;4872108;29;20057;-48
2022/05/02 01:01:48;;;;;;;8.50;5.80;;;10.80;99.90;;;;;;4858636;29;20162;-47
2022/05/02 01:04:14;;;;;;;7.30;5.38;;;10.70;99.90;;;;;;4858567;29;20482;-47
2022/05/02 01:09:24;;;;;;;12.20;7.40;;;10.60;99.90;;;;;;4858291;29;20044;-47
2022/05/02 01:11:50;;;;;;;16.95;6.88;;;10.60;99.90;;;;;;4858349;29;20030;-50
2022/05/02 01:14:15;;;;;;;10.43;5.60;;;10.60;99.90;;;;;;4858269;29;20494;-47
2022/05/02 01:16:41;;;;;;;8.50;6.03;;;10.50;99.90;;;;;;4858091;29;20034;-46
2022/05/02 01:19:06;;;;;;;8.55;5.82;;;10.50;99.90;;;;;;4857857;29;20501;-46
2022/05/02 01:21:32;;;;;;;8.85;6.53;;;10.50;99.90;;;;;;4858052;29;20097;-46
2022/05/02 01:24:00;;;;;;;6.65;5.93;;;10.40;99.90;;;;;;4858144;29;20095;-45
2022/05/02 01:26:26;;;;;;;7.25;6.07;;;10.40;99.90;;;;;;4858004;29;20038;-45
2022/05/02 01:28:54;;;;;;;6.68;6.07;;;10.40;99.90;;;;;;4857764;29;20485;-47
2022/05/02 01:31:20;;;;;;;7.97;6.30;;;10.40;99.90;;;;;;4858053;29;20026;-47
2022/05/02 01:33:46;;;;;;;8.85;6.07;;;10.40;99.90;;;;;;4872194;29;20477;-46
2022/05/02 01:36:12;;;;;;;8.65;6.93;;;10.40;99.90;;;;;;4857819;29;20084;-46
2022/05/02 01:38:39;;;;;;;9.05;6.05;;;10.40;99.90;;;;;;4857577;29;20025;-45
2022/05/02 01:41:05;;;;;;;9.90;7.05;;;10.30;99.90;;;;;;4857763;29;20077;-46
2022/05/02 01:43:31;;;;;;;11.45;6.40;;;10.40;99.90;;;;;;4857778;29;20417;-48
2022/05/02 01:45:59;;;;;;;9.18;7.07;;;10.40;99.90;;;;;;4857658;29;20021;-47
2022/05/02 01:48:24;;;;;;;10.23;6.68;;;10.50;99.90;;;;;;4857573;29;20030;-44
2022/05/02 01:50:50;;;;;;;10.52;7.13;;;10.50;99.90;;;;;;4857633;29;20462;-45
2022/05/02 01:53:16;;;;;;;9.52;5.70;;;10.60;99.90;;;;;;4856549;29;20402;-50
2022/05/02 01:55:41;;;;;;;7.28;6.10;;;10.50;99.90;;;;;;4857628;29;20425;-45
2022/05/02 01:58:07;;;;;;;8.30;6.60;;;10.50;99.90;;;;;;4857272;29;20048;-45
2022/05/02 02:00:32;;;;;;;8.15;6.50;;;10.40;99.90;;;;;;4857230;29;20037;-46
2022/05/02 02:02:58;;;;;;;9.68;6.55;;;10.30;99.90;;;;;;4857677;29;20124;-47
2022/05/02 02:08:07;;;;;;;10.15;6.35;;;10.10;99.90;;;;;;4857148;29;20469;-45
2022/05/02 02:10:33;;;;;;;8.63;6.57;;;10.10;99.90;;;;;;4857328;29;20037;-45
2022/05/02 02:12:59;;;;;;;7.40;6.22;;;10.10;99.90;;;;;;4857274;29;20057;-46
2022/05/02 02:15:24;;;;;;;7.97;6.18;;;10.00;99.90;;;;;;4857403;29;20022;-45
2022/05/02 02:17:50;;;;;;;10.02;5.97;;;10.00;99.90;;;;;;4857066;29;20033;-44
2022/05/02 02:20:15;;;;;;;8.85;6.43;;;9.90;99.90;;;;;;4856898;29;20038;-45
2022/05/02 02:22:41;;;;;;;7.07;6.38;;;9.90;99.90;;;;;;4857432;29;20022;-48
2022/05/02 02:25:07;;;;;;;11.45;6.03;;;9.90;99.90;;;;;;4857343;29;20033;-45
2022/05/02 02:27:33;;;;;;;6.45;5.85;;;9.80;99.90;;;;;;4855639;29;20223;-48
2022/05/02 02:29:59;;;;;;;11.40;5.90;;;9.80;99.90;;;;;;4857267;29;20433;-46
2022/05/02 02:32:25;;;;;;;9.70;6.15;;;9.80;99.90;;;;;;4857291;29;20026;-46
2022/05/02 02:34:51;;;;;;;8.50;5.90;;;9.80;99.90;;;;;;4857286;29;20030;-44
2022/05/02 02:37:17;;;;;;;14.02;7.07;;;9.70;99.90;;;;;;4856806;29;20391;-45
2022/05/02 02:39:43;;;;;;;8.95;7.40;;;9.80;99.90;;;;;;4856597;29;20032;-44
2022/05/02 02:42:09;;;;;;;11.18;7.70;;;9.90;99.90;;;;;;4857006;29;20036;-45
2022/05/02 02:44:34;;;;;;;15.43;7.47;;;10.10;99.90;;;;;;4857076;29;20029;-46
2022/05/02 02:47:00;;;;;;;12.52;8.32;;;10.20;99.90;;;;;;4856616;29;20061;-47
2022/05/02 02:49:26;;;;;;;8.52;7.63;;;10.20;99.90;;;;;;4856980;29;20101;-44
2022/05/02 02:51:51;;;;;;;10.27;7.00;;;10.30;99.90;;;;;;4856823;29;20041;-46
2022/05/02 02:54:17;;;;;;;7.78;6.57;;;10.30;99.90;;;;;;4856939;29;20029;-45
2022/05/02 02:56:42;;;;;;;9.43;7.68;;;10.20;99.90;;;;;;4856713;29;20065;-46
2022/05/02 02:59:08;;;;;;;14.55;7.75;;;10.10;99.90;;;;;;4856733;29;20036;-44
2022/05/02 03:01:34;;;;;;;8.73;7.15;;;10.10;99.90;;;;;;4856901;29;20032;-47
2022/05/02 03:06:01;;;;;;;7.18;6.47;;;10.00;99.90;;;;;;4856687;29;20041;-45
2022/05/02 03:06:45;;;;;;;11.40;8.63;;;9.90;99.90;;;;;;4856230;29;20048;-43
2022/05/02 03:09:11;;;;;;;9.20;6.45;;;9.90;99.90;;;;;;4856650;29;20121;-44
2022/05/02 03:11:37;;;;;;;9.65;7.20;;;9.80;99.90;;;;;;4856715;29;20069;-46
2022/05/02 03:14:02;;;;;;;11.40;7.18;;;9.70;99.90;;;;;;4856795;29;20122;-47
2022/05/02 03:16:28;;;;;;;11.27;7.90;;;9.60;99.90;;;;;;4856545;29;20030;-51
2022/05/02 03:18:53;;;;;;;15.77;7.85;;;9.60;99.90;;;;;;4856398;29;20112;-45
2022/05/02 03:21:19;;;;;;;12.10;7.13;;;9.60;99.90;;;;;;4856561;29;20106;-44
2022/05/02 03:23:44;;;;;;;10.20;8.10;;;9.60;99.90;;;;;;4855877;29;20112;-46
2022/05/02 03:26:10;;;;;;;11.18;7.65;;;9.60;99.90;;;;;;4856295;29;20037;-50
2022/05/02 03:28:35;;;;;;;12.43;7.88;;;9.60;99.90;;;;;;4856499;29;20048;-43
2022/05/02 03:31:01;;;;;;;12.02;7.80;;;9.60;99.90;;;;;;4856390;29;20405;-47
2022/05/02 03:33:26;;;;;;;10.10;6.95;;;9.60;99.90;;;;;;4856335;29;20097;-49
2022/05/02 03:35:52;;;;;;;7.88;6.93;;;9.60;99.90;;;;;;4856850;29;20505;-46
2022/05/02 03:38:17;;;;;;;7.65;6.60;;;9.60;99.90;;;;;;4855637;29;20465;-41
2022/05/02 03:40:42;;;;;;;8.70;7.05;;;9.50;99.90;;;;;;4856491;29;20048;-46
2022/05/02 03:43:08;;;;;;;14.05;8.52;;;9.50;99.90;;;;;;4856429;29;20029;-45
2022/05/02 03:45:34;;;;;;;11.18;6.30;;;9.40;99.90;;;;;;4856377;29;20033;-45
2022/05/02 03:48:00;;;;;;;8.85;6.78;;;9.40;99.90;;;;;;4856018;29;20069;-45
2022/05/02 03:50:25;;;;;;;9.00;7.90;;;9.30;99.90;;;;;;4856317;29;20030;-44
2022/05/02 03:52:51;;;;;;;10.10;8.10;;;9.30;99.90;;;;;;4856461;29;20033;-49
2022/05/02 03:55:16;;;;;;;9.48;7.15;;;9.20;99.90;;;;;;4856399;29;20611;-46
2022/05/02 03:57:42;;;;;;;10.10;7.47;;;9.20;99.90;;;;;;4855799;29;20029;-48
2022/05/02 04:00:08;;;;;;;12.38;7.30;;;9.20;99.90;;;;;;4856017;29;20039;-43
2022/05/02 04:02:34;;;;;;;11.18;7.75;;;9.10;99.90;;;;;;4856073;29;20401;-47
2022/05/02 04:05:00;;;;;;;13.10;7.53;;;9.10;99.90;;;;;;4856146;29;20029;-51
2022/05/02 04:07:25;;;;;;;9.50;7.78;;;9.00;99.90;;;;;;4855646;29;20033;-48
2022/05/02 04:09:51;;;;;;;12.77;7.90;;;9.00;99.90;;;;;;4854757;29;20045;-41
2022/05/02 04:12:16;;;;;;;13.57;8.05;;;9.00;99.90;;;;;;4855910;29;20061;-46
2022/05/02 04:14:42;;;;;;;9.23;7.90;;;9.00;99.90;;;;;;4856048;29;20057;-51
2022/05/02 04:17:09;;;;;;;11.73;7.95;;;9.00;99.90;;;;;;4855407;29;20092;-45
2022/05/02 04:19:35;;;;;;;10.48;8.13;;;9.00;99.90;;;;;;4856000;29;20449;-42
2022/05/02 04:22:00;;;;;;;12.20;7.75;;;9.10;99.90;;;;;;4855910;29;20092;-49
2022/05/02 04:24:26;;;;;;;11.35;9.45;;;9.20;99.90;;;;;;4855937;29;20410;-45
2022/05/02 04:26:51;;;;;;;14.32;8.18;;;9.30;99.90;;;;;;4855677;29;20022;-52
2022/05/02 04:29:17;;;;;;;10.18;9.10;;;9.40;99.90;;;;;;4855689;29;20563;-47
2022/05/02 04:31:42;;;;;;;13.38;9.00;;;9.40;99.90;;;;;;4855728;29;20029;-43
2022/05/02 04:34:08;;;;;;;13.23;8.25;;;9.40;99.90;;;;;;4856036;29;20033;-45
2022/05/02 04:36:33;;;;;;;13.35;9.90;;;9.40;99.90;;;;;;4858828;29;20390;-46
2022/05/02 04:38:59;;;;;;;18.25;9.35;;;9.40;99.90;;;;;;4858001;29;20041;-49
2022/05/02 04:41:24;;;;;;;11.90;8.43;;;9.50;99.90;;;;;;4858875;29;20053;-42
2022/05/02 04:43:52;;;;;;;13.40;9.57;;;9.50;99.90;;;;;;4858913;29;20041;-49
2022/05/02 04:46:20;;;;;;;12.88;8.43;;;9.50;99.90;;;;;;4858767;29;20048;-45
2022/05/02 04:48:45;;;;;;;11.32;8.80;;;9.60;99.90;;;;;;4858790;29;20052;-45
2022/05/02 04:51:11;;;;;;;9.60;8.07;;;9.60;99.90;;;;;;4859087;29;20143;-45
2022/05/02 04:53:36;;;;;;;8.30;7.50;;;9.60;99.90;;;;;;4858945;29;20033;-41
2022/05/02 04:56:02;;;;;;;13.70;7.95;;;9.70;99.90;;;;;;4858871;29;20034;-47
2022/05/02 04:58:28;;;;;;;13.68;8.50;;;9.70;99.90;;;;;;4858975;29;20446;-47
2022/05/02 05:00:53;;;;;;;8.93;7.90;;;9.70;99.90;;;;;;4858795;29;20486;-44
2022/05/02 05:03:20;;;;;;;10.35;7.60;;;9.70;99.90;;;;;;4858596;29;20068;-46
2022/05/02 05:05:45;;;;;;;9.27;7.53;;;9.80;99.90;;;;;;4858715;29;20577;-45
2022/05/02 05:08:11;;;;;;;11.50;7.85;;;9.90;99.90;;;;;;4858386;29;20112;-49
2022/05/02 05:10:48;;;;;;;9.25;7.28;;;9.90;99.90;;;;;;4858477;29;20037;-51
2022/05/02 05:13:18;;;;;;;11.57;8.05;;;10.00;99.90;;;;;;4858718;29;20050;-47
2022/05/02 05:16:24;;;;;;;13.50;8.35;;;10.10;99.90;;;;;;4858597;29;20421;-46
2022/05/02 05:19:23;;;;;;;13.68;8.90;;;10.30;99.90;;;;;;4858151;29;20030;-44
2022/05/02 05:22:07;;;;;;;11.73;8.82;;;10.40;99.90;;;;;;4857084;29;20111;-44
2022/05/02 05:24:42;;;;;;;14.60;8.20;;;10.50;99.90;;;;;;4872494;29;20494;-44
2022/05/02 05:27:39;;;;;;;11.00;9.00;;;10.70;99.90;;;;;;4857830;29;20038;-47
2022/05/02 05:30:07;;;;;;;14.13;8.68;;;10.80;99.90;;;;;;4858082;29;20372;-46
2022/05/02 05:32:40;;;;;;;11.95;8.23;;;10.80;99.90;;;;;;4856826;29;20486;-45
2022/05/02 05:35:07;;;;;;;9.85;8.40;;;10.70;99.90;;;;;;4858507;29;20030;-49
2022/05/02 05:37:54;;;;;;;10.50;7.55;;;10.80;99.90;;;;;;4857183;29;20033;-45
2022/05/02 05:40:43;;;;;;;10.88;8.00;;;10.90;99.90;;;;;;4856811;29;20037;-49
2022/05/02 05:43:30;;;;;;;13.35;8.60;;;11.10;99.90;;;;;;4857934;29;20081;-47
2022/05/02 05:45:56;;;;;;;11.18;8.20;;;11.20;99.90;;;;;;4857300;29;20038;-50
2022/05/02 05:48:43;;;;;;;10.05;8.27;;;11.40;99.90;;;;;;4857308;29;20037;-46
2022/05/02 05:51:18;;;;;;;10.27;7.72;;;11.40;99.90;;;;;;4857896;29;20105;-45
2022/05/02 05:54:12;;;;;;;9.18;8.10;;;11.40;99.90;;;;;;4857921;29;20021;-45
2022/05/02 05:56:43;;;;;;;14.93;9.10;;;11.40;99.90;;;;;;4856567;29;20038;-43
2022/05/02 05:59:28;;;;;;;12.55;7.70;;;11.40;99.90;;;;;;4857590;29;20382;-48
2022/05/02 06:02:24;;;;;;;14.07;8.25;;;11.50;99.90;;;;;;4858023;29;20033;-49
2022/05/02 06:04:50;;;;;;;;;;;11.50;99.90;;;;;;4858374;29;20455;-47
2022/05/02 06:07:21;;;;;;;9.10;7.50;;;11.70;99.90;;;;;;4871515;29;20016;-47
2022/05/02 06:09:52;;;;;;;14.00;7.88;;;11.80;99.90;;;;;;4906976;23;20043;-44
2022/05/02 06:12:20;;;;;;;13.40;8.73;;;11.90;99.90;;;;;;4973301;28;20038;-45
2022/05/02 06:20:22;;;;;;;15.60;7.93;;;11.60;99.90;;;;;;4974554;28;20038;-45
2022/05/02 06:22:48;;;;;;;8.95;7.55;;;11.70;99.90;;;;;;4974333;28;20022;-46
2022/05/02 06:25:14;;;;;;;16.35;8.68;;;12.00;99.90;;;;;;4973917;28;20078;-45
2022/05/02 06:27:42;;;;;;;9.07;8.07;;;12.20;99.90;;;;;;4990505;28;20190;-47
2022/05/02 06:30:09;;;;;;;12.70;8.10;;;12.30;99.90;;;;;;4978144;28;20033;-48
2022/05/02 06:32:42;;;;;;;14.10;8.63;;;12.40;99.90;;;;;;4973593;28;20034;-45
2022/05/02 06:35:08;;;;;;;10.27;7.97;;;12.50;99.90;;;;;;4988431;28;20509;-46
2022/05/02 06:37:49;;;;;;;8.38;7.43;;;12.70;99.90;;;;;;4972649;28;20113;-44
2022/05/02 06:40:27;;;;;;;13.23;7.97;;;13.00;99.90;;;;;;4972278;28;20483;-44
2022/05/02 06:43:15;;;;;;;9.48;7.60;;;13.30;99.90;;;;;;4973324;28;20042;-44
2022/05/02 06:45:46;;;;;;;12.63;7.70;;;13.30;99.90;;;;;;4973334;28;20022;-43
2022/05/02 06:48:41;;;;;;;11.75;7.60;;;13.40;99.90;;;;;;4973320;28;20500;-43
2022/05/02 06:51:22;;;;;;;11.85;7.15;;;13.60;99.90;;;;;;4973593;28;20042;-44
2022/05/02 06:54:25;;;;;;;10.18;7.18;;;13.90;99.90;;;;;;4988710;28;20034;-44
2022/05/02 06:57:02;;;;;;;7.82;6.70;;;14.20;99.90;;;;;;4972907;28;20496;-45
2022/05/02 06:59:44;;;;;;;12.23;7.50;;;14.30;99.90;;;;;;4972262;28;20054;-44
2022/05/02 07:02:26;;;;;;;9.18;7.10;;;14.30;99.90;;;;;;4972347;28;20058;-47
2022/05/02 07:04:56;;;;;;;13.52;7.20;;;14.10;99.90;;;;;;4972106;28;20058;-44
2022/05/02 07:07:51;;;;;;;11.10;8.25;;;13.80;99.90;;;;;;4973135;28;20086;-44
2022/05/02 07:10:23;;;;;;;11.70;7.60;;;13.70;99.90;;;;;;4971745;28;20384;-44
2022/05/02 07:12:54;;;;;;;11.93;7.20;;;13.70;99.90;;;;;;4987874;28;20126;-44
2022/05/02 07:15:26;;;;;;;10.55;7.15;;;13.90;99.90;;;;;;4973149;28;20139;-45
2022/05/02 07:18:04;;;;;;;8.20;7.35;;;14.20;99.90;;;;;;4973042;28;20105;-43
2022/05/02 07:20:47;;;;;;;10.55;7.60;;;14.60;99.90;;;;;;4973078;28;20102;-45
2022/05/02 07:23:36;;;;;;;10.05;7.00;;;15.00;99.90;;;;;;4973234;28;20037;-46
2022/05/02 07:26:14;;;;;;;9.45;6.97;;;14.60;99.90;;;;;;4987992;28;20038;-44
2022/05/02 07:28:47;;;;;;;8.48;7.53;;;14.20;99.90;;;;;;4973261;28;20054;-48
2022/05/02 07:31:19;;;;;;;13.93;7.95;;;14.10;99.90;;;;;;4973389;28;20027;-47
2022/05/02 07:33:47;;;;;;;14.18;8.00;;;14.20;99.90;;;;;;4972831;28;20023;-44
2022/05/02 07:36:17;;;;;;;16.10;8.52;;;14.20;99.90;;;;;;4971669;28;20030;-49
2022/05/02 07:38:49;;;;;;;12.50;7.88;;;14.10;99.90;;;;;;4972750;28;20023;-44
2022/05/02 07:41:23;;;;;;;11.45;7.78;;;14.00;99.90;;;;;;4973052;28;20027;-46
2022/05/02 07:43:59;;;;;;;20.20;8.45;;;13.90;99.90;;;;;;4972969;28;20126;-42
2022/05/02 07:46:31;;;;;;;45.60;32.47;;;13.70;99.90;;;;;;4972900;28;20047;-45
2022/05/02 07:48:59;;;;;;;24.30;17.90;;;13.90;99.90;;;;;;4972600;28;20031;-45
2022/05/02 07:51:26;;;;;;;16.55;7.60;;;14.20;99.90;;;;;;4974288;28;20092;-46
2022/05/02 07:53:52;;;;;;;10.25;7.22;;;14.30;99.90;;;;;;4973274;28;20062;-47
2022/05/02 07:56:23;;;;;;;11.48;7.30;;;14.20;99.90;;;;;;4972879;28;20082;-45
2022/05/02 07:58:52;;;;;;;10.65;7.43;;;14.20;99.90;;;;;;4972884;28;20030;-45
2022/05/02 08:01:18;;;;;;;12.50;7.28;;;14.20;99.90;;;;;;4973564;28;20063;-44
2022/05/02 08:03:44;;;;;;;13.35;6.60;;;14.30;99.90;;;;;;4973261;28;20027;-44
2022/05/02 08:06:46;;;;;;;10.82;7.63;;;14.50;99.90;;;;;;4972938;28;20030;-44
2022/05/02 08:09:36;;;;;;;14.77;6.82;;;14.50;99.90;;;;;;4974335;28;20112;-44
2022/05/02 08:12:11;;;;;;;9.55;6.45;;;14.50;99.90;;;;;;4976888;28;20449;-44
2022/05/02 08:15:01;;;;;;;9.95;7.13;;;14.40;99.90;;;;;;4976344;28;20402;-42
2022/05/02 08:17:58;;;;;;;12.23;6.78;;;14.70;99.90;;;;;;4976182;28;20034;-46
2022/05/02 08:20:42;;;;;;;8.68;5.85;;;14.90;99.90;;;;;;4976343;28;20505;-46
2022/05/02 08:27:15;;;;;;;9.82;6.25;;;15.80;99.90;;;;;;4975997;28;20029;-44
2022/05/02 08:30:09;;;;;;;11.10;5.55;;;16.10;99.90;;;;;;4976187;28;20030;-45
2022/05/02 08:32:40;;;;;;;8.85;6.10;;;16.40;99.90;;;;;;4976083;28;20019;-44
2022/05/02 08:35:08;;;;;;;11.93;6.53;;;16.80;99.70;;;;;;4974578;28;20031;-46
2022/05/02 08:37:57;;;;;;;7.97;6.22;;;16.70;98.70;;;;;;4972590;28;20106;-48
2022/05/02 08:40:26;;;;;;;14.68;6.68;;;16.50;99.50;;;;;;4972998;28;20039;-45
2022/05/02 08:43:10;;;;;;;9.35;5.28;;;16.30;99.30;;;;;;4981260;28;20022;-44
2022/05/02 08:46:13;;;;;;;6.68;5.07;;;16.20;98.90;;;;;;4992920;28;20422;-43
2022/05/02 08:51:58;;;;;;;9.77;6.07;;;16.00;99.40;;;;;;4972709;28;20050;-44
2022/05/02 08:54:42;;;;;;;29.65;21.02;;;15.90;99.30;;;;;;4974290;28;20054;-46
2022/05/02 08:57:36;;;;;;;10.98;8.57;;;15.80;99.50;;;;;;4978010;28;20035;-49
2022/05/02 09:00:07;;;;;;;10.32;5.35;;;15.80;99.80;;;;;;4975391;28;20027;-41
2022/05/02 09:02:56;;;;;;;6.85;6.15;;;15.80;99.80;;;;;;4975652;28;20152;-44
2022/05/02 09:05:51;;;;;;;7.93;5.53;;;15.90;99.40;;;;;;4975323;28;20033;-43
2022/05/02 09:08:46;;;;;;;15.30;6.10;;;16.00;99.80;;;;;;4974993;28;20502;-42
2022/05/02 09:11:33;;;;;;;6.90;5.68;;;16.20;99.40;;;;;;4989953;28;20434;-43
2022/05/02 09:14:36;;;;;;;7.90;5.78;;;16.40;99.10;;;;;;4975766;28;20067;-44
2022/05/02 09:17:12;;;;;;;9.25;5.80;;;16.40;98.40;;;;;;4974969;28;20044;-43
2022/05/02 09:19:40;;;;;;;7.13;6.03;;;16.60;98.40;;;;;;4974586;28;20483;-42
2022/05/02 09:22:21;;;;;;;8.20;5.70;;;17.00;98.10;;;;;;4974979;28;20573;-43
2022/05/02 09:24:55;;;;;;;6.68;5.50;;;17.20;97.80;;;;;;4970754;28;20171;-44
2022/05/02 09:27:51;;;;;;;10.40;5.93;;;17.40;97.60;;;;;;4986065;28;20030;-44
2022/05/02 09:30:38;;;;;;;10.13;6.15;;;17.90;96.50;;;;;;4992486;28;20101;-43
2022/05/02 09:33:29;;;;;;;5.70;4.82;;;18.10;96.20;;;;;;4975132;28;20495;-43
2022/05/02 09:36:03;;;;;;;7.25;6.00;;;18.20;96.30;;;;;;4977721;28;20031;-44
2022/05/02 09:38:44;;;;;;;8.05;5.60;;;18.00;96.10;;;;;;4994681;28;20455;-43
2022/05/02 09:41:34;;;;;;;19.95;5.78;;;18.00;96.50;;;;;;4978913;28;20039;-41
2022/05/02 09:50:25;;;;;;;12.13;6.20;;;18.30;96.70;;;;;;4973924;28;20522;-45
2022/05/02 09:53:22;;;;;;;14.13;7.60;;;18.20;96.30;;;;;;4973560;28;20015;-48
2022/05/02 09:58:58;;;;;;;8.88;6.10;;;18.20;96.00;;;;;;4973463;28;20049;-50
2022/05/02 10:01:30;;;;;;;12.95;6.10;;;17.90;96.10;;;;;;4973688;28;20043;-48
2022/05/02 10:04:14;;;;;;;13.27;5.68;;;18.10;97.10;;;;;;4989272;28;20397;-49
2022/05/02 10:06:53;;;;;;;13.05;8.25;;;17.60;96.80;;;;;;4973943;28;20035;-47
2022/05/02 10:09:44;;;;;;;11.38;6.40;;;17.60;97.00;;;;;;4974178;28;20022;-47
2022/05/02 10:12:25;;;;;;;12.18;6.13;;;17.60;97.30;;;;;;4974069;28;20057;-47
2022/05/02 10:15:10;;;;;;;7.13;5.85;;;17.70;96.80;;;;;;4974078;28;20076;-49
2022/05/02 10:17:44;;;;;;;8.55;5.97;;;17.70;96.60;;;;;;4973361;28;20490;-48
2022/05/02 10:20:18;;;;;;;10.87;6.33;;;17.50;96.80;;;;;;4974118;28;20034;-46
2022/05/02 10:22:58;;;;;;;8.18;6.97;;;17.60;97.10;;;;;;4973947;28;20023;-45
2022/05/02 10:25:33;;;;;;;12.05;6.47;;;17.50;97.30;;;;;;4973809;28;20027;-44
2022/05/02 10:27:58;;;;;;;7.82;5.57;;;17.70;97.10;;;;;;4973730;28;20026;-46
2022/05/02 10:30:32;;;;;;;8.30;7.38;;;17.80;97.30;;;;;;4973827;28;20022;-49
2022/05/02 10:33:05;;;;;;;7.90;5.28;;;17.90;96.80;;;;;;4974882;28;20150;-45
2022/05/02 10:35:36;;;;;;;6.80;6.10;;;17.90;97.40;;;;;;4974657;28;20114;-45
2022/05/02 10:38:04;;;;;;;14.55;7.07;;;18.20;97.00;;;;;;4976182;28;20030;-46
2022/05/02 10:40:41;;;;;;;17.00;14.55;;;18.30;96.80;;;;;;4976131;28;20027;-45
2022/05/02 10:43:09;;;;;;;10.40;5.88;;;18.40;95.80;;;;;;4976390;28;20038;-45
2022/05/02 10:45:40;;;;;;;8.68;6.40;;;18.50;96.30;;;;;;4976327;28;20399;-48
2022/05/02 10:48:22;;;;;;;10.38;6.20;;;18.50;95.70;;;;;;4991081;28;20027;-46
2022/05/02 10:51:15;;;;;;;6.97;5.55;;;18.40;96.00;;;;;;4976482;28;20030;-47
2022/05/02 10:54:07;;;;;;;8.30;6.20;;;18.40;96.00;;;;;;4975864;28;20015;-45
2022/05/02 10:57:13;;;;;;;7.53;6.13;;;18.50;96.40;;;;;;4975935;28;20051;-47
2022/05/02 10:59:45;;;;;;;8.27;6.03;;;18.70;95.40;;;;;;4980187;28;20090;-46
2022/05/02 11:02:41;;;;;;;8.90;7.03;;;18.70;95.00;;;;;;4976000;28;20396;-46
2022/05/02 11:05:11;;;;;;;12.90;7.22;;;18.60;94.60;;;;;;4975804;28;20030;-46
2022/05/02 11:08:11;;;;;;;6.70;5.30;;;18.50;95.50;;;;;;4974950;28;20027;-46
2022/05/02 11:10:49;;;;;;;15.30;9.18;;;18.40;95.70;;;;;;4943258;28;20490;-45
2022/05/02 11:13:55;;;;;;;22.30;14.57;;;18.40;95.20;;;;;;4974839;28;20541;-50
2022/05/02 11:16:24;;;;;;;11.52;6.00;;;18.30;95.40;;;;;;4974867;28;20023;-49
2022/05/02 11:22:23;;;;;;;14.18;6.18;;;18.30;96.10;;;;;;4975835;28;20054;-45
2022/05/02 11:25:02;;;;;;;9.00;6.30;;;18.40;95.70;;;;;;4990627;28;20023;-44
2022/05/02 11:27:58;;;;;;;10.15;6.28;;;18.50;96.20;;;;;;4974852;28;20019;-44
2022/05/02 11:30:28;;;;;;;21.30;15.18;;;18.50;95.90;;;;;;4965194;28;20439;-44
2022/05/02 11:33:24;;;;;;;73.60;43.92;;;18.60;94.90;;;;;;4975437;28;20491;-45
2022/05/02 11:35:54;;;;;;;9.90;6.22;;;18.60;95.30;;;;;;4975594;28;20051;-49
2022/05/02 11:38:29;;;;;;;9.13;6.70;;;18.60;94.70;;;;;;4975055;28;20118;-47
2022/05/02 11:40:59;;;;;;;8.63;5.80;;;18.60;94.50;;;;;;4975980;28;20023;-44
2022/05/02 11:43:27;;;;;;;9.05;6.53;;;18.60;95.30;;;;;;4976161;28;20034;-50
2022/05/02 11:46:16;;;;;;;9.68;6.70;;;18.70;94.50;;;;;;4979714;28;20022;-48
2022/05/02 11:49:17;;;;;;;9.07;6.88;;;18.80;95.50;;;;;;4978882;28;20031;-45
2022/05/02 11:51:50;;;;;;;14.68;7.00;;;18.90;94.10;;;;;;4980009;28;20023;-50
2022/05/02 11:54:32;;;;;;;11.40;6.60;;;18.80;93.80;;;;;;4979363;28;20126;-47
2022/05/02 11:57:05;;;;;;;7.63;6.82;;;18.80;93.90;;;;;;4979546;28;20026;-49
2022/05/02 12:00:03;;;;;;;7.78;6.03;;;18.70;93.20;;;;;;4979428;28;20038;-49
2022/05/02 12:02:38;;;;;;;8.90;6.13;;;18.80;93.80;;;;;;4978773;28;20165;-50
2022/05/02 12:05:12;;;;;;;8.10;6.60;;;18.90;93.80;;;;;;4980474;28;20026;-45
2022/05/02 12:07:40;;;;;;;14.15;6.22;;;18.90;93.40;;;;;;4979059;28;20030;-49
2022/05/02 12:10:08;;;;;;;10.20;5.97;;;19.00;93.40;;;;;;4981029;28;20094;-48
2022/05/02 12:12:36;;;;;;;9.70;5.90;;;19.10;93.40;;;;;;4980330;28;20030;-47
2022/05/02 12:15:12;;;;;;;8.50;5.38;;;19.10;93.40;;;;;;4979025;28;20027;-46
2022/05/02 12:18:04;;;;;;;6.90;5.97;;;19.20;93.60;;;;;;4978835;28;20109;-45
2022/05/02 12:20:40;;;;;;;11.75;6.88;;;19.40;93.00;;;;;;4978579;28;20435;-49
2022/05/02 12:23:15;;;;;;;7.18;5.82;;;19.40;92.90;;;;;;4979870;28;20022;-47
2022/05/02 12:25:54;;;;;;;8.35;5.28;;;19.40;93.00;;;;;;4979677;28;20027;-48
2022/05/02 12:28:41;;;;;;;7.63;5.32;;;19.30;92.30;;;;;;4979631;28;20039;-49
2022/05/02 12:31:08;;;;;;;7.20;5.70;;;19.40;92.20;;;;;;4979481;28;20041;-48
2022/05/02 12:33:40;;;;;;;7.10;6.40;;;19.50;92.60;;;;;;4978826;28;20027;-48
2022/05/02 12:36:15;;;;;;;5.50;4.82;;;19.60;92.30;;;;;;4980125;28;20379;-50
2022/05/02 12:38:48;;;;;;;8.30;5.28;;;19.60;92.40;;;;;;4979840;28;20030;-49
2022/05/02 12:41:20;;;;;;;8.43;6.40;;;19.80;92.30;;;;;;4978822;28;20059;-50
2022/05/02 12:43:47;;;;;;;6.32;5.72;;;19.90;91.70;;;;;;4978456;28;20027;-46
2022/05/02 12:46:17;;;;;;;9.75;5.53;;;19.80;91.00;;;;;;4978883;28;20466;-50
2022/05/02 12:48:55;;;;;;;10.50;6.65;;;19.80;91.40;;;;;;4978246;28;20402;-47
2022/05/02 12:51:32;;;;;;;5.95;5.32;;;19.90;92.10;;;;;;4978335;28;20027;-46
2022/05/02 12:54:28;;;;;;;6.40;5.35;;;20.00;91.50;;;;;;4979026;28;20061;-46
2022/05/02 13:02:50;;;;;;;7.85;5.82;;;20.20;91.80;;;;;;4979091;28;20025;-46
2022/05/02 13:05:18;;;;;;;8.35;5.68;;;20.20;90.90;;;;;;4979171;28;20035;-50
2022/05/02 13:07:45;;;;;;;10.25;5.30;;;20.20;91.00;;;;;;4978841;28;20073;-47
2022/05/02 13:10:17;;;;;;;5.88;5.35;;;20.10;90.90;;;;;;4979208;28;20039;-45
2022/05/02 13:13:05;;;;;;;7.10;5.45;;;20.10;91.10;;;;;;4978472;28;20143;-46
2022/05/02 13:15:40;;;;;;;6.40;5.43;;;20.00;90.70;;;;;;4977737;28;20093;-46
2022/05/02 13:18:13;;;;;;;6.30;5.70;;;20.00;90.20;;;;;;4977509;28;20474;-46
2022/05/02 13:20:39;;;;;;;10.35;6.13;;;20.00;91.70;;;;;;4978560;28;20027;-45
2022/05/02 13:23:15;;;;;;;7.40;5.65;;;20.00;91.30;;;;;;4977761;28;20042;-46
2022/05/02 13:26:03;;;;;;;8.35;5.20;;;20.00;90.70;;;;;;4978281;28;20054;-47
2022/05/02 13:28:32;;;;;;;8.55;5.38;;;20.00;90.50;;;;;;4977947;28;20027;-45
2022/05/02 13:31:24;;;;;;;8.18;5.13;;;20.00;90.70;;;;;;4978077;28;20395;-48
2022/05/02 13:33:53;;;;;;;6.55;5.13;;;19.90;90.70;;;;;;4978495;28;20015;-46
2022/05/02 13:36:21;;;;;;;5.30;4.63;;;19.90;90.80;;;;;;4978363;28;20030;-47
2022/05/02 13:39:10;;;;;;;12.57;5.63;;;19.90;90.10;;;;;;4978470;28;20445;-51
2022/05/02 13:42:01;;;;;;;8.85;5.47;;;19.80;90.30;;;;;;4978067;28;20058;-48
2022/05/02 13:44:52;;;;;;;8.55;5.28;;;19.90;90.50;;;;;;4978065;28;20037;-49
2022/05/02 13:47:21;;;;;;;11.55;4.43;;;20.00;90.60;;;;;;4978005;28;20044;-48
2022/05/02 13:50:10;;;;;;;7.50;4.97;;;20.00;90.90;;;;;;4978078;28;20019;-49
2022/05/02 13:52:36;;;;;;;10.55;5.57;;;20.10;90.20;;;;;;4977941;28;20517;-46
2022/05/02 13:55:09;;;;;;;11.82;5.25;;;20.10;90.40;;;;;;4977910;28;20035;-47